Mangnai, China
Current Conditions -  °F | °C
As of 4:30 PM on Sunday 26 Oct 2014 (Local Time) from ZWWW Reporting Station
Smoke Smoke  
Wind Chill: 63°   Ceiling: Unl
Heat Index: 63°   Visibility: 2.5mi
Dew Point: 43°   Wind: 7mph
Humidity: 48%   Direction: 310°NW
Pressure: 29.88"   Gusts: NA
Location:  38.25°N, 90.85°E
Report Text: ZWWW 260830Z 31003MPS 280V340 4000 FU NSC 17/06 Q1012 NOSIG
Loading
Personal Weather Stations






























Interactive Weather Map
Tropical Storm Tracking
New forecast layout! Learn more

10-Day Weather Forecast

Advertisements
Track Severe Weather on mobile